Time;durP1;ratioP1;P1;durP2;ratioP2;P2;SDS_P1;SDS_P2;PMS_P1;PMS_P2;Temp;Humidity;BMP_temperature;BMP_pressure;BME280_temperature;BME280_humidity;BME280_pressure;Samples;Min_cycle;Max_cycle;Signal;HPM_P1;HPM_P2
2021/01/30 00:00:05;;;;;;;26.98;13.10;;;9.00;90.20;;;;;;5053646;28;20032;-75
2021/01/30 00:02:31;;;;;;;34.28;14.05;;;8.90;90.30;;;;;;5053481;28;20032;-75
2021/01/30 00:04:56;;;;;;;35.97;14.00;;;9.00;90.30;;;;;;5054699;28;20029;-75
2021/01/30 00:07:22;;;;;;;47.85;16.58;;;9.00;90.20;;;;;;5054617;28;20087;-75
2021/01/30 00:09:49;;;;;;;42.70;16.42;;;9.00;90.50;;;;;;5054927;28;20449;-75
2021/01/30 00:12:14;;;;;;;48.78;19.38;;;9.00;90.50;;;;;;5054815;28;20474;-75
2021/01/30 00:14:40;;;;;;;47.78;21.75;;;9.00;90.70;;;;;;5055096;28;20036;-76
2021/01/30 00:17:06;;;;;;;48.45;20.67;;;9.20;90.40;;;;;;5055019;28;20037;-75
2021/01/30 00:19:32;;;;;;;51.83;22.38;;;9.20;90.30;;;;;;5053363;28;20107;-75
2021/01/30 00:22:00;;;;;;;45.10;20.27;;;9.30;90.10;;;;;;5054452;28;20037;-75
2021/01/30 00:24:26;;;;;;;53.45;19.33;;;9.50;89.80;;;;;;5053171;28;20021;-76
2021/01/30 00:27:02;;;;;;;35.35;16.90;;;9.60;89.00;;;;;;5053955;28;20342;-75
2021/01/30 00:29:29;;;;;;;27.85;14.30;;;9.40;89.80;;;;;;5054406;28;20070;-75
2021/01/30 00:31:55;;;;;;;29.38;14.18;;;9.30;90.00;;;;;;5054339;28;20029;-76
2021/01/30 00:34:21;;;;;;;42.55;16.90;;;9.20;90.40;;;;;;5036410;28;20032;-75
2021/01/30 00:36:50;;;;;;;37.33;16.83;;;9.10;90.80;;;;;;5052597;28;20025;-75
2021/01/30 00:39:16;;;;;;;40.33;18.67;;;9.20;90.70;;;;;;5052913;28;20068;-75
2021/01/30 00:41:41;;;;;;;41.20;20.17;;;9.00;90.70;;;;;;5054117;28;20061;-75
2021/01/30 00:44:07;;;;;;;48.08;20.10;;;9.10;90.90;;;;;;5054827;28;20431;-73
2021/01/30 00:46:32;;;;;;;45.85;19.95;;;8.90;91.20;;;;;;5036474;28;20094;-75
2021/01/30 00:48:58;;;;;;;42.55;18.63;;;9.00;91.20;;;;;;5052354;28;20037;-75
2021/01/30 00:51:23;;;;;;;45.50;19.92;;;8.90;91.30;;;;;;5052484;28;20036;-75
2021/01/30 00:53:49;;;;;;;42.53;19.35;;;9.00;91.30;;;;;;5053664;28;20480;-75
2021/01/30 00:56:15;;;;;;;44.85;18.90;;;9.30;90.90;;;;;;5053845;28;20025;-76
2021/01/30 00:58:42;;;;;;;40.67;18.98;;;9.30;90.80;;;;;;5053852;28;20071;-74
2021/01/30 01:01:08;;;;;;;50.72;18.73;;;9.20;90.70;;;;;;5052785;28;20036;-75
2021/01/30 01:03:33;;;;;;;47.10;19.02;;;9.20;90.90;;;;;;5052554;28;20029;-73
2021/01/30 01:05:59;;;;;;;60.42;20.17;;;9.20;91.00;;;;;;5053760;28;20048;-74
2021/01/30 01:08:24;;;;;;;46.60;18.48;;;9.20;91.00;;;;;;5052596;28;20374;-74
2021/01/30 01:10:50;;;;;;;49.45;18.25;;;9.20;90.80;;;;;;5054250;28;20033;-75
2021/01/30 01:13:16;;;;;;;55.28;18.35;;;9.30;90.80;;;;;;5053225;28;20033;-74
2021/01/30 01:15:41;;;;;;;45.13;17.58;;;9.30;90.80;;;;;;5053793;28;20039;-75
2021/01/30 01:18:07;;;;;;;46.70;16.45;;;9.30;90.50;;;;;;5052359;28;20033;-74
2021/01/30 01:20:32;;;;;;;45.28;15.70;;;9.20;90.90;;;;;;5053300;28;20100;-74
2021/01/30 01:22:58;;;;;;;35.38;14.98;;;9.20;91.00;;;;;;5053791;28;20028;-74
2021/01/30 01:25:24;;;;;;;39.08;14.68;;;9.10;90.80;;;;;;5053306;28;20051;-74
2021/01/30 01:27:49;;;;;;;41.90;15.85;;;9.10;91.10;;;;;;5052240;28;20036;-74
2021/01/30 01:30:16;;;;;;;42.20;14.73;;;9.00;91.40;;;;;;5052626;28;20025;-74
2021/01/30 01:32:42;;;;;;;42.92;16.10;;;9.00;91.20;;;;;;5036075;28;20040;-74
2021/01/30 01:35:08;;;;;;;30.17;14.57;;;9.00;91.40;;;;;;5052220;28;20021;-74
2021/01/30 01:37:34;;;;;;;16.63;9.98;;;9.00;90.60;;;;;;5053438;28;20091;-74
2021/01/30 01:39:59;;;;;;;19.35;10.45;;;9.10;90.00;;;;;;5052168;28;20033;-74
2021/01/30 01:42:25;;;;;;;15.18;10.82;;;9.30;89.80;;;;;;5053267;28;20056;-74
2021/01/30 01:44:51;;;;;;;20.40;11.18;;;9.40;88.90;;;;;;5053476;28;20080;-74
2021/01/30 01:47:18;;;;;;;22.48;8.02;;;9.40;88.00;;;;;;5053774;28;20114;-74
2021/01/30 01:49:44;;;;;;;20.55;6.50;;;9.10;84.60;;;;;;5038985;28;20135;-74
2021/01/30 01:52:15;;;;;;;18.60;6.00;;;8.70;83.80;;;;;;5039444;28;20120;-74
2021/01/30 01:54:41;;;;;;;17.70;5.47;;;8.30;84.30;;;;;;5056103;28;20021;-74
2021/01/30 01:57:12;;;;;;;13.73;5.25;;;8.10;86.30;;;;;;5056034;28;20032;-74
2021/01/30 01:59:43;;;;;;;14.45;4.80;;;8.10;86.50;;;;;;5039391;28;20021;-74
2021/01/30 02:02:09;;;;;;;19.52;5.70;;;8.00;86.50;;;;;;5055676;28;20028;-74
2021/01/30 02:04:34;;;;;;;18.75;6.47;;;7.80;86.50;;;;;;5039245;28;20124;-74
2021/01/30 02:07:00;;;;;;;17.05;6.15;;;7.80;87.90;;;;;;5039392;28;20116;-74
2021/01/30 02:09:26;;;;;;;17.33;6.07;;;7.90;87.80;;;;;;5055859;28;20442;-74
2021/01/30 02:12:09;;;;;;;14.88;6.10;;;7.80;87.30;;;;;;5057399;28;20041;-74
2021/01/30 02:14:41;;;;;;;20.10;6.80;;;8.00;87.20;;;;;;5055918;28;20024;-74
2021/01/30 02:17:33;;;;;;;16.50;7.50;;;7.90;87.30;;;;;;5039331;28;20021;-74
2021/01/30 02:20:32;;;;;;;15.30;7.25;;;7.80;87.20;;;;;;5056752;28;20033;-74
2021/01/30 02:23:06;;;;;;;16.40;8.32;;;7.90;87.20;;;;;;5057287;28;20036;-74
2021/01/30 02:25:46;;;;;;;18.33;10.15;;;7.80;87.70;;;;;;5055366;28;20079;-74
2021/01/30 02:28:36;;;;;;;22.63;10.77;;;7.80;87.60;;;;;;5055574;28;20029;-74
2021/01/30 02:31:21;;;;;;;22.27;10.17;;;7.80;87.20;;;;;;5056603;28;20021;-74
2021/01/30 02:34:01;;;;;;;20.27;11.00;;;7.80;87.40;;;;;;5057029;28;20031;-74
2021/01/30 02:36:41;;;;;;;23.23;11.23;;;7.80;87.60;;;;;;5056645;28;20037;-74
2021/01/30 02:39:08;;;;;;;22.85;12.45;;;7.70;87.60;;;;;;5056618;28;20017;-74
2021/01/30 02:41:35;;;;;;;26.42;12.27;;;7.80;88.30;;;;;;5054907;28;20374;-74
2021/01/30 02:44:02;;;;;;;21.40;12.32;;;7.90;88.00;;;;;;5038381;28;20052;-74
2021/01/30 02:46:30;;;;;;;20.88;12.18;;;7.80;87.50;;;;;;5055260;28;20036;-74
2021/01/30 02:48:57;;;;;;;16.52;10.20;;;7.70;87.50;;;;;;5038147;28;20639;-74
2021/01/30 02:51:25;;;;;;;16.27;10.52;;;7.90;87.40;;;;;;5055027;28;20036;-74
2021/01/30 02:53:53;;;;;;;14.43;9.35;;;7.90;86.50;;;;;;5038685;28;20446;-74
2021/01/30 02:56:20;;;;;;;18.80;12.13;;;8.10;86.00;;;;;;5038844;28;20501;-74
2021/01/30 02:58:55;;;;;;;18.75;12.90;;;8.20;84.90;;;;;;5054914;28;20032;-74
2021/01/30 03:01:20;;;;;;;20.50;12.57;;;8.20;84.30;;;;;;5022100;28;20484;-74
2021/01/30 03:03:46;;;;;;;20.70;15.02;;;8.20;84.30;;;;;;5054778;28;20112;-74
2021/01/30 03:06:29;;;;;;;19.35;14.50;;;8.20;84.70;;;;;;5038578;28;20120;-74
2021/01/30 03:09:11;;;;;;;21.70;14.35;;;8.20;84.20;;;;;;5039339;28;20082;-74
2021/01/30 03:12:01;;;;;;;22.35;15.18;;;8.10;84.60;;;;;;5038923;28;20100;-74
2021/01/30 03:14:26;;;;;;;21.77;16.00;;;7.90;84.90;;;;;;5055239;28;20070;-74
2021/01/30 03:16:52;;;;;;;21.98;16.90;;;7.80;85.10;;;;;;5037676;28;20107;-74
2021/01/30 03:19:20;;;;;;;19.23;15.13;;;7.80;86.10;;;;;;5037425;28;20371;-74
2021/01/30 03:21:46;;;;;;;19.33;13.15;;;7.90;85.90;;;;;;5054431;28;20027;-74
2021/01/30 03:24:11;;;;;;;21.27;15.27;;;7.80;85.20;;;;;;5037878;28;20029;-74
2021/01/30 03:26:41;;;;;;;28.60;18.00;;;7.50;84.30;;;;;;5053990;28;20056;-74
2021/01/30 03:29:08;;;;;;;25.83;18.52;;;7.40;83.50;;;;;;5037538;28;20114;-74
2021/01/30 03:31:34;;;;;;;30.60;20.10;;;7.30;83.70;;;;;;5054260;28;20068;-74
2021/01/30 03:34:00;;;;;;;27.10;21.20;;;7.20;83.70;;;;;;5055397;28;20083;-74
2021/01/30 03:36:25;;;;;;;35.30;24.10;;;7.10;83.80;;;;;;5055300;28;20037;-75
2021/01/30 03:38:51;;;;;;;35.70;25.70;;;7.00;84.10;;;;;;5054815;28;20435;-74
2021/01/30 03:41:16;;;;;;;33.27;28.30;;;7.00;83.40;;;;;;5054039;28;20036;-74
2021/01/30 03:43:42;;;;;;;37.30;29.13;;;6.80;83.80;;;;;;5054861;28;20025;-75
2021/01/30 03:46:08;;;;;;;35.97;29.40;;;6.90;83.30;;;;;;5055086;28;20033;-74
2021/01/30 03:48:33;;;;;;;34.57;27.13;;;6.80;83.30;;;;;;5054969;28;20443;-74
2021/01/30 03:50:59;;;;;;;29.17;24.13;;;6.70;82.60;;;;;;5054793;28;20082;-74
2021/01/30 03:53:24;;;;;;;23.67;18.30;;;6.60;82.10;;;;;;5054988;28;20068;-74
2021/01/30 03:55:50;;;;;;;18.07;15.70;;;6.40;81.40;;;;;;5055489;28;20405;-74
2021/01/30 03:58:15;;;;;;;21.97;14.63;;;6.10;80.20;;;;;;5054616;28;20053;-74
2021/01/30 04:00:41;;;;;;;23.77;14.50;;;5.90;80.60;;;;;;5054559;28;20025;-74
2021/01/30 04:03:07;;;;;;;17.67;13.03;;;5.80;81.10;;;;;;5054544;28;20056;-74
2021/01/30 04:05:32;;;;;;;17.53;13.77;;;5.70;81.80;;;;;;5054779;28;20024;-74
2021/01/30 04:07:59;;;;;;;17.67;12.30;;;5.60;81.70;;;;;;5053367;28;20029;-74
2021/01/30 04:10:32;;;;;;;15.13;11.10;;;5.70;81.20;;;;;;5054422;28;20035;-74
2021/01/30 04:12:58;;;;;;;17.40;12.43;;;5.70;80.50;;;;;;5053410;28;20025;-74
2021/01/30 04:15:27;;;;;;;16.70;12.00;;;5.70;80.40;;;;;;5036563;28;20091;-74
2021/01/30 04:17:52;;;;;;;15.63;10.23;;;5.80;80.20;;;;;;5053545;28;20024;-74
2021/01/30 04:20:18;;;;;;;19.30;11.70;;;5.70;79.20;;;;;;5053358;28;20512;-74
2021/01/30 04:22:44;;;;;;;16.47;12.30;;;5.90;79.90;;;;;;5054455;28;20033;-74
2021/01/30 04:25:11;;;;;;;15.87;12.40;;;6.00;80.10;;;;;;5053425;28;20445;-74
2021/01/30 04:27:36;;;;;;;15.50;11.97;;;5.90;80.50;;;;;;5052541;28;20045;-74
2021/01/30 04:30:04;;;;;;;21.57;13.33;;;5.90;79.90;;;;;;5054326;28;20473;-74
2021/01/30 04:32:30;;;;;;;15.90;12.23;;;6.00;80.60;;;;;;5053352;28;20029;-74
2021/01/30 04:34:55;;;;;;;20.83;13.00;;;6.00;79.50;;;;;;5054293;28;20112;-74
2021/01/30 04:37:21;;;;;;;24.33;13.63;;;5.90;80.00;;;;;;5054232;28;20033;-74
2021/01/30 04:39:46;;;;;;;18.17;13.33;;;5.90;80.80;;;;;;5054599;28;20448;-74
2021/01/30 04:42:16;;;;;;;17.87;14.67;;;5.80;80.90;;;;;;5052855;28;20032;-74
2021/01/30 04:45:15;;;;;;;18.20;14.43;;;5.80;81.40;;;;;;5036693;28;20025;-74
2021/01/30 04:47:49;;;;;;;15.27;11.43;;;5.70;81.70;;;;;;5052636;28;20032;-74
2021/01/30 04:50:25;;;;;;;15.57;12.70;;;5.50;81.10;;;;;;5052959;28;20037;-74
2021/01/30 04:53:13;;;;;;;17.43;12.43;;;5.30;81.60;;;;;;5037546;28;20021;-74
2021/01/30 04:55:58;;;;;;;19.90;12.63;;;5.40;81.60;;;;;;5038323;28;20029;-74
2021/01/30 04:58:44;;;;;;;17.37;13.90;;;5.20;82.70;;;;;;5053853;28;20025;-74
2021/01/30 05:01:19;;;;;;;26.27;15.00;;;5.30;83.10;;;;;;5053589;28;20485;-74
2021/01/30 05:03:50;;;;;;;17.20;14.37;;;5.40;83.00;;;;;;5053867;28;20029;-74
2021/01/30 05:06:17;;;;;;;;;;;5.50;82.70;;;;;;5054213;28;20103;-74
2021/01/30 05:08:56;;;;;;;22.00;13.20;;;5.50;83.10;;;;;;5052570;28;19943;-74
2021/01/30 05:11:22;;;;;;;14.37;12.17;;;5.10;84.00;;;;;;5037274;28;20151;-74
2021/01/30 05:13:59;;;;;;;16.67;12.37;;;5.00;83.70;;;;;;5052252;28;20053;-74
2021/01/30 05:16:39;;;;;;;15.60;12.80;;;4.90;83.90;;;;;;5036786;28;20025;-74
2021/01/30 05:19:06;;;;;;;13.70;11.10;;;4.90;84.00;;;;;;5035731;28;20036;-74
2021/01/30 05:21:45;;;;;;;14.87;10.90;;;4.80;84.00;;;;;;5035479;28;20029;-75
2021/01/30 05:24:10;;;;;;;18.97;12.10;;;4.80;84.00;;;;;;5052420;28;20013;-75
2021/01/30 05:27:06;;;;;;;12.37;11.07;;;4.80;84.00;;;;;;5052125;28;20478;-76
2021/01/30 05:29:47;;;;;;;13.90;11.00;;;5.00;83.40;;;;;;5052307;28;20450;-76
2021/01/30 05:32:51;;;;;;;13.10;11.38;;;5.10;83.00;;;;;;5053474;28;20024;-75
2021/01/30 05:35:20;;;;;;;15.73;12.10;;;5.00;82.50;;;;;;5052529;28;20073;-75
2021/01/30 05:37:55;;;;;;;14.93;12.80;;;5.10;83.00;;;;;;5036073;28;20537;-75
2021/01/30 05:40:32;;;;;;;23.23;15.43;;;5.00;83.10;;;;;;5036502;28;20025;-75
2021/01/30 05:43:15;;;;;;;16.07;14.17;;;5.10;82.80;;;;;;5052407;28;20017;-75
2021/01/30 05:45:52;;;;;;;19.83;16.37;;;5.30;82.60;;;;;;5052595;28;20382;-75
2021/01/30 05:48:27;;;;;;;21.57;17.47;;;5.00;82.80;;;;;;5052378;28;20087;-75
2021/01/30 05:51:05;;;;;;;18.83;16.47;;;5.10;83.40;;;;;;5036812;28;20049;-75
2021/01/30 05:53:31;;;;;;;20.17;17.33;;;5.20;82.90;;;;;;5051943;28;20021;-75
2021/01/30 05:55:57;;;;;;;21.00;18.63;;;5.00;83.10;;;;;;5052094;28;20385;-75
2021/01/30 05:58:24;;;;;;;19.33;17.30;;;5.00;84.30;;;;;;5035553;28;20029;-75
2021/01/30 06:00:52;;;;;;;20.50;17.20;;;4.90;84.10;;;;;;5052284;28;20025;-75
2021/01/30 06:03:22;;;;;;;23.67;19.77;;;4.90;84.50;;;;;;5035740;28;20033;-75
2021/01/30 06:05:53;;;;;;;21.83;17.80;;;4.80;85.00;;;;;;5051928;28;20025;-75
2021/01/30 06:08:25;;;;;;;23.90;19.70;;;4.90;84.00;;;;;;5051785;28;20056;-75
2021/01/30 06:11:10;;;;;;;24.83;20.00;;;4.80;83.80;;;;;;5053366;28;20103;-75
2021/01/30 06:13:52;;;;;;;23.53;20.60;;;4.80;84.20;;;;;;5038029;28;20021;-75
2021/01/30 06:16:38;;;;;;;28.43;20.60;;;4.70;84.80;;;;;;5052153;28;20035;-75
2021/01/30 06:19:30;;;;;;;22.10;19.37;;;4.80;84.40;;;;;;5053314;28;20025;-76
2021/01/30 06:22:19;;;;;;;21.90;19.70;;;4.80;83.60;;;;;;5052651;28;20040;-76
2021/01/30 06:24:44;;;;;;;24.13;20.73;;;4.70;83.80;;;;;;5051787;28;20462;-76
2021/01/30 06:27:23;;;;;;;25.53;20.87;;;4.70;84.60;;;;;;5052131;28;20039;-76
2021/01/30 06:29:51;;;;;;;26.10;22.37;;;4.60;84.80;;;;;;5037262;28;20021;-76
2021/01/30 06:32:19;;;;;;;24.00;21.33;;;4.70;84.90;;;;;;5035524;28;20025;-76
2021/01/30 06:34:55;;;;;;;28.10;23.63;;;4.70;84.70;;;;;;5056434;28;20474;-75
2021/01/30 06:37:38;;;;;;;31.50;23.07;;;4.40;85.60;;;;;;5040252;28;20029;-76
2021/01/30 06:40:19;;;;;;;26.37;22.57;;;4.40;86.00;;;;;;5056681;28;20097;-76
2021/01/30 06:42:46;;;;;;;31.75;24.52;;;4.40;85.90;;;;;;5055394;28;20024;-76
2021/01/30 06:45:26;;;;;;;27.60;23.10;;;4.20;86.60;;;;;;5055083;28;20347;-75
2021/01/30 06:47:52;;;;;;;29.30;22.67;;;4.20;86.10;;;;;;5039942;28;20064;-76
2021/01/30 06:50:30;;;;;;;26.83;22.13;;;4.20;85.90;;;;;;5048147;28;20064;-77
2021/01/30 06:53:25;;;;;;;26.30;22.63;;;4.20;86.00;;;;;;5046331;28;20029;-75
2021/01/30 06:55:51;;;;;;;25.07;22.43;;;4.40;86.30;;;;;;5045788;28;20394;-76
2021/01/30 06:58:23;;;;;;;25.23;22.73;;;4.30;86.00;;;;;;5055650;28;20075;-75
2021/01/30 07:00:49;;;;;;;25.53;22.50;;;4.20;86.10;;;;;;5053914;28;20473;-76
2021/01/30 07:03:44;;;;;;;24.83;22.20;;;4.20;86.90;;;;;;5035948;28;20029;-76
2021/01/30 07:06:18;;;;;;;22.83;20.50;;;4.20;86.40;;;;;;5055475;28;20025;-78
2021/01/30 07:09:02;;;;;;;21.07;18.37;;;4.30;86.50;;;;;;5037332;28;20032;-75
2021/01/30 07:11:40;;;;;;;18.57;16.57;;;4.20;85.70;;;;;;5055581;28;20025;-76
2021/01/30 07:14:34;;;;;;;19.40;17.40;;;4.10;85.80;;;;;;5053335;28;20428;-75
2021/01/30 07:17:20;;;;;;;19.93;16.17;;;4.10;86.40;;;;;;5056266;28;20029;-76
2021/01/30 07:20:09;;;;;;;21.77;19.47;;;3.90;86.20;;;;;;5054499;28;20033;-75
2021/01/30 07:22:55;;;;;;;28.60;24.07;;;3.70;87.30;;;;;;5054724;28;20033;-76
2021/01/30 07:25:24;;;;;;;26.53;22.33;;;3.60;88.10;;;;;;5039228;28;20041;-75
2021/01/30 07:27:56;;;;;;;26.20;22.23;;;3.60;88.10;;;;;;5037659;28;20029;-75
2021/01/30 07:30:36;;;;;;;24.53;20.03;;;3.60;87.80;;;;;;5054292;28;20101;-75
2021/01/30 07:33:08;;;;;;;23.15;20.60;;;3.50;88.00;;;;;;5039133;28;20051;-75
2021/01/30 07:35:41;;;;;;;25.77;22.40;;;3.50;88.40;;;;;;5020943;28;20017;-77
2021/01/30 07:38:13;;;;;;;23.17;20.70;;;3.60;87.90;;;;;;5038095;28;20111;-75
2021/01/30 07:40:44;;;;;;;26.70;23.57;;;3.60;87.40;;;;;;5053902;28;20413;-75
2021/01/30 07:43:42;;;;;;;26.50;23.52;;;3.60;87.70;;;;;;5054086;28;20025;-76
2021/01/30 07:46:12;;;;;;;25.77;22.13;;;3.70;87.60;;;;;;5048814;28;20036;-75
2021/01/30 07:48:44;;;;;;;24.00;20.70;;;3.60;87.90;;;;;;5053506;28;20033;-75
2021/01/30 07:51:16;;;;;;;26.20;21.97;;;3.70;87.50;;;;;;5037748;28;20351;-75
2021/01/30 07:53:41;;;;;;;24.67;20.67;;;3.60;87.40;;;;;;5053655;28;20381;-75
2021/01/30 07:56:19;;;;;;;27.80;22.30;;;3.70;87.50;;;;;;5053545;28;20104;-76
2021/01/30 07:59:03;;;;;;;23.53;19.77;;;3.70;86.90;;;;;;5054843;28;20083;-75
2021/01/30 08:01:35;;;;;;;24.27;21.37;;;3.60;87.60;;;;;;5053391;28;20071;-76
2021/01/30 08:04:40;;;;;;;27.93;22.47;;;3.60;87.80;;;;;;5055080;28;20029;-76
2021/01/30 08:07:25;;;;;;;25.77;21.37;;;3.60;88.00;;;;;;5053668;28;20032;-76
2021/01/30 08:10:11;;;;;;;24.80;21.53;;;3.60;87.60;;;;;;5037107;28;20347;-76
2021/01/30 08:12:46;;;;;;;24.50;20.57;;;3.70;87.30;;;;;;5053875;28;20061;-75
2021/01/30 08:15:20;;;;;;;24.63;21.13;;;3.60;87.30;;;;;;5054406;28;20428;-76
2021/01/30 08:17:48;;;;;;;23.33;20.63;;;3.50;87.90;;;;;;5051240;28;20053;-76
2021/01/30 08:20:34;;;;;;;29.10;22.37;;;3.60;88.20;;;;;;5042804;28;20132;-76
2021/01/30 08:23:09;;;;;;;22.80;18.93;;;3.70;88.00;;;;;;5046199;28;20036;-77
2021/01/30 08:25:36;;;;;;;22.40;19.97;;;3.70;87.40;;;;;;5054754;28;20538;-81
2021/01/30 08:28:18;;;;;;;22.10;19.13;;;3.70;86.90;;;;;;5041081;28;20094;-76
2021/01/30 08:30:43;;;;;;;26.73;21.73;;;3.60;87.10;;;;;;5028257;28;20021;-76
2021/01/30 08:33:09;;;;;;;24.17;20.17;;;3.50;87.70;;;;;;5033525;28;20112;-81
2021/01/30 08:35:55;;;;;;;25.00;21.23;;;3.50;88.20;;;;;;5039198;28;20029;-81
2021/01/30 08:38:21;;;;;;;23.37;20.50;;;3.50;88.20;;;;;;5046969;28;20025;-77
2021/01/30 08:40:54;;;;;;;24.33;19.17;;;3.50;87.50;;;;;;5049559;28;20373;-76
2021/01/30 08:43:40;;;;;;;23.30;20.73;;;3.40;87.60;;;;;;5032543;28;20032;-77
2021/01/30 08:46:31;;;;;;;26.47;21.73;;;3.40;87.90;;;;;;5052040;28;20020;-77
2021/01/30 08:49:14;;;;;;;27.70;23.13;;;3.50;87.40;;;;;;5051978;28;20033;-77
2021/01/30 08:51:44;;;;;;;27.93;23.37;;;3.50;87.20;;;;;;5049236;28;20036;-76
2021/01/30 08:54:23;;;;;;;26.10;22.00;;;3.70;87.00;;;;;;5053913;28;20044;-76
2021/01/30 08:56:50;;;;;;;27.00;24.13;;;3.60;86.50;;;;;;5036033;28;20025;-76
2021/01/30 08:59:43;;;;;;;30.37;25.47;;;3.40;86.40;;;;;;5052543;28;20021;-75
2021/01/30 09:02:10;;;;;;;28.80;25.50;;;3.30;87.30;;;;;;5053777;28;20029;-76
2021/01/30 09:04:40;;;;;;;31.23;26.40;;;3.00;88.00;;;;;;5036632;28;20390;-76
2021/01/30 09:07:06;;;;;;;32.47;27.03;;;3.10;87.90;;;;;;5052563;28;20029;-75
2021/01/30 09:09:31;;;;;;;33.07;28.07;;;3.20;88.10;;;;;;5053730;28;20029;-75
2021/01/30 09:12:03;;;;;;;35.07;27.10;;;3.20;87.90;;;;;;5019525;28;20039;-75
2021/01/30 09:14:29;;;;;;;32.27;27.43;;;3.40;87.80;;;;;;5053593;28;20092;-76
2021/01/30 09:16:57;;;;;;;29.33;26.23;;;3.50;87.20;;;;;;5052237;28;20132;-76
2021/01/30 09:19:47;;;;;;;33.17;26.13;;;3.30;87.00;;;;;;5053357;28;20478;-76
2021/01/30 09:22:46;;;;;;;29.17;25.50;;;3.30;87.60;;;;;;5052386;28;20029;-75
2021/01/30 09:25:21;;;;;;;30.77;26.07;;;3.50;87.50;;;;;;5038905;28;20017;-75
2021/01/30 09:28:00;;;;;;;27.97;24.87;;;3.40;86.60;;;;;;5052233;28;20124;-75
2021/01/30 09:30:41;;;;;;;30.57;27.07;;;3.30;86.10;;;;;;5052136;28;20044;-76
2021/01/30 09:33:27;;;;;;;31.13;25.42;;;3.30;87.10;;;;;;5052188;28;20040;-76
2021/01/30 09:35:59;;;;;;;32.97;26.67;;;3.30;87.40;;;;;;5052859;28;20366;-76
2021/01/30 09:38:33;;;;;;;29.10;25.37;;;3.20;87.40;;;;;;5036592;28;20025;-75
2021/01/30 09:41:05;;;;;;;29.20;24.77;;;3.20;87.30;;;;;;5053770;28;20049;-76
2021/01/30 09:43:31;;;;;;;30.70;26.30;;;3.20;86.60;;;;;;5052026;28;20086;-76
2021/01/30 09:45:56;;;;;;;31.13;26.80;;;3.20;87.10;;;;;;5052685;28;20104;-75
2021/01/30 09:48:22;;;;;;;32.57;26.93;;;3.30;87.20;;;;;;5035258;28;20090;-76
2021/01/30 09:50:53;;;;;;;31.50;27.53;;;3.30;86.70;;;;;;5019939;28;20032;-76
2021/01/30 09:53:31;;;;;;;27.80;24.45;;;3.40;86.00;;;;;;5035356;28;20523;-76
2021/01/30 09:56:10;;;;;;;29.03;25.93;;;3.50;85.60;;;;;;5036064;28;20029;-77
2021/01/30 09:58:36;;;;;;;31.40;25.43;;;3.40;85.80;;;;;;5051982;28;20394;-76
2021/01/30 10:01:06;;;;;;;29.30;25.07;;;3.50;85.40;;;;;;5051851;28;20029;-76
2021/01/30 10:03:35;;;;;;;31.15;26.38;;;3.40;85.50;;;;;;5036024;28;20028;-76
2021/01/30 10:06:14;;;;;;;31.97;27.50;;;3.40;86.10;;;;;;5035556;28;20017;-76
2021/01/30 10:08:40;;;;;;;30.60;26.47;;;3.60;85.90;;;;;;5055739;28;20032;-76
2021/01/30 10:11:07;;;;;;;31.23;26.20;;;3.60;85.40;;;;;;5057235;28;20100;-76
2021/01/30 10:13:33;;;;;;;31.90;27.53;;;3.60;85.10;;;;;;5055646;28;20028;-76
2021/01/30 10:16:02;;;;;;;32.93;28.27;;;3.50;84.60;;;;;;5039043;28;20450;-76
2021/01/30 10:18:28;;;;;;;32.30;28.80;;;3.60;84.50;;;;;;5023589;28;20033;-76
2021/01/30 10:21:00;;;;;;;33.43;28.57;;;3.60;84.30;;;;;;5055364;28;20032;-76
2021/01/30 10:23:33;;;;;;;34.73;29.73;;;3.50;84.20;;;;;;5039625;28;20103;-76
2021/01/30 10:26:21;;;;;;;34.67;29.70;;;3.50;84.40;;;;;;5040408;28;20021;-75
2021/01/30 10:28:54;;;;;;;35.77;31.97;;;3.40;85.10;;;;;;5055803;28;20055;-75
2021/01/30 10:31:27;;;;;;;36.50;31.57;;;3.20;85.00;;;;;;5055182;28;20028;-75
2021/01/30 10:33:58;;;;;;;37.63;31.60;;;3.30;84.90;;;;;;5055686;28;20099;-79
2021/01/30 10:36:24;;;;;;;37.60;31.23;;;3.20;84.80;;;;;;5018034;28;20374;-75
2021/01/30 10:38:50;;;;;;;43.93;35.00;;;3.20;85.80;;;;;;5048695;28;20029;-75
2021/01/30 10:41:17;;;;;;;37.30;31.23;;;3.20;86.00;;;;;;5037759;28;20082;-75
2021/01/30 10:43:43;;;;;;;40.57;33.47;;;3.20;85.60;;;;;;5038442;28;20409;-76
2021/01/30 10:46:13;;;;;;;39.67;34.93;;;3.30;85.90;;;;;;5021455;28;20020;-76
2021/01/30 10:48:39;;;;;;;39.45;32.55;;;3.40;84.60;;;;;;5047833;28;20053;-77
2021/01/30 10:51:20;;;;;;;37.70;33.60;;;3.40;84.70;;;;;;5034054;28;20025;-76
2021/01/30 10:53:46;;;;;;;39.50;32.43;;;3.40;85.30;;;;;;5037576;28;20021;-76
2021/01/30 10:56:21;;;;;;;41.97;36.70;;;3.40;84.50;;;;;;5053903;28;20032;-76
2021/01/30 10:58:48;;;;;;;43.87;36.23;;;3.40;84.70;;;;;;5054117;28;20032;-77
2021/01/30 11:01:19;;;;;;;44.20;37.60;;;3.50;84.50;;;;;;5050508;28;20104;-76
2021/01/30 11:03:50;;;;;;;45.03;37.53;;;3.50;84.00;;;;;;5054054;28;20040;-75
2021/01/30 11:06:19;;;;;;;;;;;3.60;83.80;;;;;;5046092;28;20036;-76
2021/01/30 11:08:44;;;;;;;48.00;37.63;;;3.40;83.70;;;;;;5054876;28;19966;-75
2021/01/30 11:11:12;;;;;;;48.30;40.13;;;3.30;85.20;;;;;;5033968;28;20028;-75
2021/01/30 11:13:40;;;;;;;50.30;40.87;;;3.20;85.90;;;;;;5053866;28;20028;-75
2021/01/30 11:16:15;;;;;;;49.67;39.97;;;3.10;86.20;;;;;;5054432;28;20086;-75
2021/01/30 11:18:48;;;;;;;48.77;38.77;;;3.30;86.50;;;;;;5037720;28;20143;-76
2021/01/30 11:21:26;;;;;;;47.60;40.47;;;3.40;85.00;;;;;;5054054;28;20486;-76
2021/01/30 11:23:53;;;;;;;52.17;43.70;;;3.40;85.10;;;;;;5054723;28;20370;-76
2021/01/30 11:26:31;;;;;;;49.57;40.63;;;3.40;84.80;;;;;;5038365;28;20017;-78
2021/01/30 11:28:57;;;;;;;52.70;40.80;;;3.30;85.40;;;;;;5055225;28;20033;-78
2021/01/30 11:31:23;;;;;;;50.90;41.03;;;3.40;85.00;;;;;;5055338;28;20029;-78
2021/01/30 11:33:51;;;;;;;50.87;42.73;;;3.30;84.50;;;;;;5037605;28;20096;-75
2021/01/30 11:36:16;;;;;;;50.70;44.10;;;3.30;85.00;;;;;;5054055;28;20032;-75
2021/01/30 11:38:43;;;;;;;49.73;42.47;;;3.30;85.80;;;;;;5054224;28;20370;-76
2021/01/30 11:41:09;;;;;;;54.73;44.37;;;3.20;86.10;;;;;;5053908;28;20410;-76
2021/01/30 11:43:34;;;;;;;53.53;43.97;;;3.20;86.20;;;;;;5053810;28;20025;-76
2021/01/30 11:46:00;;;;;;;52.00;40.43;;;3.30;86.30;;;;;;5053693;28;20043;-75
2021/01/30 11:48:26;;;;;;;49.60;40.43;;;3.40;85.50;;;;;;5054706;28;20486;-76
2021/01/30 11:50:51;;;;;;;52.23;42.60;;;3.50;85.10;;;;;;5053735;28;20060;-76
2021/01/30 11:53:19;;;;;;;58.47;44.03;;;3.60;84.90;;;;;;5037812;28;20149;-75
2021/01/30 11:55:45;;;;;;;54.20;44.43;;;3.60;84.70;;;;;;5037591;28;20024;-75
2021/01/30 11:58:11;;;;;;;47.90;40.63;;;3.60;84.60;;;;;;5053777;28;20466;-75
2021/01/30 12:00:37;;;;;;;51.50;43.73;;;3.50;84.80;;;;;;5053724;28;20029;-75
2021/01/30 12:03:03;;;;;;;49.70;41.77;;;3.50;84.60;;;;;;5053672;28;20036;-75
2021/01/30 12:05:29;;;;;;;54.17;43.97;;;3.60;85.00;;;;;;5053511;28;20040;-75
2021/01/30 12:07:54;;;;;;;53.37;44.53;;;3.40;85.20;;;;;;5053533;28;20508;-78
2021/01/30 12:10:20;;;;;;;52.40;41.87;;;3.40;85.50;;;;;;5054738;28;20028;-76
2021/01/30 12:12:46;;;;;;;52.40;43.97;;;3.40;85.40;;;;;;5053395;28;20451;-76
2021/01/30 12:15:12;;;;;;;53.40;43.73;;;3.50;85.80;;;;;;5053900;28;20029;-76
2021/01/30 12:17:38;;;;;;;55.87;45.13;;;3.50;85.60;;;;;;5053316;28;20481;-76
2021/01/30 12:20:12;;;;;;;52.37;43.43;;;3.60;85.40;;;;;;5054178;28;20178;-76
2021/01/30 12:22:38;;;;;;;50.07;43.03;;;3.70;85.00;;;;;;5037763;28;20545;-76
2021/01/30 12:25:05;;;;;;;50.37;39.70;;;3.80;83.60;;;;;;5053316;28;20104;-76
2021/01/30 12:27:31;;;;;;;46.17;38.13;;;3.80;84.20;;;;;;5054291;28;20092;-76
2021/01/30 12:29:56;;;;;;;43.90;38.30;;;3.90;83.50;;;;;;5036475;28;20037;-77
2021/01/30 12:32:22;;;;;;;45.00;37.93;;;3.90;83.20;;;;;;5053956;28;20487;-76
2021/01/30 12:34:48;;;;;;;41.03;35.37;;;3.90;83.50;;;;;;5054557;28;20025;-76
2021/01/30 12:37:13;;;;;;;42.87;36.77;;;4.00;83.40;;;;;;5052982;28;20033;-76
2021/01/30 12:39:39;;;;;;;47.03;40.37;;;4.20;83.00;;;;;;5053399;28;20025;-76
2021/01/30 12:42:05;;;;;;;38.43;34.27;;;4.20;83.30;;;;;;5053275;28;20033;-76
2021/01/30 12:44:31;;;;;;;42.43;37.63;;;4.50;82.70;;;;;;5053789;28;20063;-76
2021/01/30 12:46:56;;;;;;;45.60;37.87;;;4.60;81.70;;;;;;5054016;28;20039;-76
2021/01/30 12:49:22;;;;;;;42.97;34.40;;;4.40;81.40;;;;;;5052613;28;20037;-75
2021/01/30 12:51:48;;;;;;;41.17;36.67;;;4.50;81.50;;;;;;5053494;28;20486;-80
2021/01/30 12:54:17;;;;;;;44.07;36.83;;;4.30;81.30;;;;;;5062154;28;20040;-76
2021/01/30 12:56:43;;;;;;;40.03;34.07;;;4.10;82.80;;;;;;5052009;28;20067;-76
2021/01/30 12:59:09;;;;;;;37.80;33.57;;;4.10;83.10;;;;;;5031616;28;20462;-75